Time;durP1;ratioP1;P1;durP2;ratioP2;P2;SDS_P1;SDS_P2;PMS_P1;PMS_P2;Temp;Humidity;BMP_temperature;BMP_pressure;BME280_temperature;BME280_humidity;BME280_pressure;Samples;Min_cycle;Max_cycle;Signal;HPM_P1;HPM_P2
2021/03/17 00:02:05;;;;;;;15.32;11.23;;;4.10;99.90;;;;;;5047671;28;20067;-69
2021/03/17 00:04:49;;;;;;;15.27;11.05;;;4.20;99.90;;;;;;5048455;28;20552;-69
2021/03/17 00:07:42;;;;;;;15.85;12.18;;;4.30;99.90;;;;;;5049258;28;20055;-69
2021/03/17 00:10:30;;;;;;;17.92;12.68;;;4.30;99.90;;;;;;5045643;28;20111;-69
2021/03/17 00:13:14;;;;;;;16.88;12.52;;;4.20;99.90;;;;;;5039891;28;20117;-69
2021/03/17 00:16:00;;;;;;;15.02;10.95;;;4.20;99.90;;;;;;5049647;28;20075;-69
2021/03/17 00:18:44;;;;;;;21.73;14.90;;;4.20;99.90;;;;;;5049193;28;20394;-69
2021/03/17 00:21:29;;;;;;;20.88;15.30;;;4.20;99.90;;;;;;5049844;28;20103;-70
2021/03/17 00:24:13;;;;;;;19.63;14.82;;;4.20;99.90;;;;;;5039276;28;20045;-70
2021/03/17 00:26:57;;;;;;;18.92;13.52;;;4.10;99.90;;;;;;5041455;28;20163;-69
2021/03/17 00:29:41;;;;;;;20.98;14.95;;;4.10;99.90;;;;;;5049381;28;20040;-69
2021/03/17 00:32:26;;;;;;;20.63;15.05;;;4.10;99.90;;;;;;5048063;28;20047;-69
2021/03/17 00:35:10;;;;;;;21.83;15.73;;;4.00;99.90;;;;;;5045680;28;20060;-69
2021/03/17 00:37:56;;;;;;;23.45;16.83;;;3.90;99.90;;;;;;5049090;28;20044;-69
2021/03/17 00:40:41;;;;;;;22.02;15.68;;;4.00;99.90;;;;;;5052849;28;20079;-69
2021/03/17 00:43:25;;;;;;;20.25;14.18;;;3.90;99.90;;;;;;5048213;28;20040;-69
2021/03/17 00:46:29;;;;;;;21.33;15.27;;;3.80;99.90;;;;;;5048896;28;20383;-69
2021/03/17 00:49:20;;;;;;;23.52;15.85;;;3.80;99.90;;;;;;5060930;28;20025;-69
2021/03/17 00:52:05;;;;;;;21.90;16.00;;;3.90;99.90;;;;;;5048443;28;20404;-69
2021/03/17 00:54:50;;;;;;;21.08;13.73;;;3.90;99.90;;;;;;5030464;28;20032;-69
2021/03/17 00:57:34;;;;;;;19.30;13.73;;;3.80;99.90;;;;;;5049573;28;20036;-69
2021/03/17 01:00:19;;;;;;;25.00;16.48;;;3.90;99.90;;;;;;5048604;28;20056;-69
2021/03/17 01:03:04;;;;;;;21.58;14.93;;;4.00;99.90;;;;;;5040459;28;20120;-68
2021/03/17 01:05:48;;;;;;;19.17;12.32;;;4.10;99.90;;;;;;5048839;28;20111;-69
2021/03/17 01:08:32;;;;;;;16.50;12.27;;;4.10;99.90;;;;;;5048045;28;20116;-69
2021/03/17 01:11:17;;;;;;;17.77;12.40;;;4.20;99.90;;;;;;5033112;28;20055;-69
2021/03/17 01:14:02;;;;;;;15.40;11.15;;;4.10;99.90;;;;;;5051608;28;20095;-69
2021/03/17 01:16:46;;;;;;;14.10;10.65;;;4.20;99.90;;;;;;5030896;28;20380;-69
2021/03/17 01:19:30;;;;;;;14.82;11.13;;;4.20;99.90;;;;;;5048144;28;20040;-69
2021/03/17 01:22:15;;;;;;;16.83;11.75;;;4.20;99.90;;;;;;5030003;28;20090;-69
2021/03/17 01:24:59;;;;;;;16.75;12.77;;;4.30;99.90;;;;;;5029051;28;20025;-69
2021/03/17 01:27:43;;;;;;;20.70;13.38;;;4.10;99.90;;;;;;5032840;28;20489;-69
2021/03/17 01:30:29;;;;;;;19.08;13.98;;;3.90;99.90;;;;;;5063890;28;20083;-69
2021/03/17 01:33:15;;;;;;;21.67;14.23;;;4.10;99.90;;;;;;5031238;28;20052;-68
2021/03/17 01:36:00;;;;;;;23.05;15.38;;;4.10;99.90;;;;;;5050121;28;20038;-69
2021/03/17 01:38:44;;;;;;;20.80;14.95;;;4.20;99.90;;;;;;5051829;28;20044;-69
2021/03/17 01:41:29;;;;;;;21.30;13.82;;;4.20;99.90;;;;;;5067015;28;20556;-69
2021/03/17 01:44:33;;;;;;;15.93;11.57;;;4.20;99.90;;;;;;5052684;28;20064;-69
2021/03/17 01:47:33;;;;;;;16.20;12.02;;;4.20;99.90;;;;;;5042210;28;20287;-69
2021/03/17 01:50:22;;;;;;;19.35;13.23;;;4.10;99.90;;;;;;5025979;28;20075;-69
2021/03/17 01:53:15;;;;;;;18.70;13.25;;;4.10;99.90;;;;;;5050774;28;20124;-69
2021/03/17 01:56:00;;;;;;;14.50;11.13;;;4.20;99.90;;;;;;5049709;28;20055;-69
2021/03/17 01:58:44;;;;;;;19.08;13.43;;;4.30;99.90;;;;;;5040876;28;20314;-69
2021/03/17 02:01:29;;;;;;;20.90;14.65;;;4.30;99.90;;;;;;5048466;28;20489;-69
2021/03/17 02:04:14;;;;;;;15.48;11.57;;;4.30;99.90;;;;;;5033124;28;20079;-69
2021/03/17 02:06:58;;;;;;;15.63;10.93;;;4.40;99.90;;;;;;5052730;28;20513;-69
2021/03/17 02:09:43;;;;;;;16.15;11.05;;;4.40;99.90;;;;;;5038651;28;20048;-69
2021/03/17 02:12:54;;;;;;;15.73;11.30;;;4.40;99.90;;;;;;5052722;28;20457;-69
2021/03/17 02:15:56;;;;;;;19.25;14.05;;;4.40;99.90;;;;;;5047049;28;20033;-69
2021/03/17 02:19:06;;;;;;;17.63;12.82;;;4.40;99.90;;;;;;5049625;28;20100;-69
2021/03/17 02:22:17;;;;;;;22.50;15.85;;;4.50;99.90;;;;;;5045251;28;20036;-69
2021/03/17 02:25:04;;;;;;;17.80;12.90;;;4.40;99.90;;;;;;5049674;28;20086;-69
2021/03/17 02:28:27;;;;;;;23.67;14.10;;;4.40;99.90;;;;;;5050737;28;20041;-69
2021/03/17 02:31:38;;;;;;;21.50;15.52;;;4.40;99.90;;;;;;5067647;28;20051;-69
2021/03/17 02:34:26;;;;;;;20.23;14.82;;;4.30;99.90;;;;;;5069994;28;20085;-69
2021/03/17 02:37:16;;;;;;;23.85;16.15;;;4.20;99.90;;;;;;5070754;28;20063;-69
2021/03/17 02:40:00;;;;;;;30.13;19.15;;;4.20;99.90;;;;;;5085123;28;20086;-68
2021/03/17 02:42:55;;;;;;;22.25;15.25;;;4.20;99.90;;;;;;5069269;28;20074;-69
2021/03/17 02:45:42;;;;;;;29.73;18.13;;;4.20;99.90;;;;;;5071139;28;20036;-69
2021/03/17 02:48:41;;;;;;;32.40;19.70;;;4.20;99.90;;;;;;5040445;28;20040;-68
2021/03/17 02:51:45;;;;;;;37.00;22.38;;;4.10;99.90;;;;;;5079074;28;20039;-69
2021/03/17 02:54:31;;;;;;;32.20;20.70;;;4.00;99.90;;;;;;5068974;28;20071;-69
2021/03/17 02:57:21;;;;;;;27.08;19.13;;;4.00;99.90;;;;;;5071017;28;20134;-69
2021/03/17 03:00:12;;;;;;;36.67;21.38;;;4.10;99.90;;;;;;5069501;28;20070;-69
2021/03/17 03:02:58;;;;;;;31.85;20.15;;;4.00;99.90;;;;;;5079976;28;20047;-69
2021/03/17 03:05:43;;;;;;;33.80;20.88;;;4.00;99.90;;;;;;5048833;28;20035;-69
2021/03/17 03:08:28;;;;;;;30.38;19.77;;;4.00;99.90;;;;;;5063192;28;20036;-69
2021/03/17 03:11:15;;;;;;;31.65;19.77;;;4.00;99.90;;;;;;5069156;28;20277;-69
2021/03/17 03:13:59;;;;;;;38.17;21.60;;;4.10;99.90;;;;;;5076940;28;20599;-69
2021/03/17 03:16:44;;;;;;;40.45;23.33;;;4.00;99.90;;;;;;5067415;28;20043;-69
2021/03/17 03:19:41;;;;;;;40.28;22.73;;;4.00;99.90;;;;;;5052096;28;20067;-69
2021/03/17 03:22:27;;;;;;;37.28;21.83;;;4.00;99.90;;;;;;5065980;28;20033;-69
2021/03/17 03:25:12;;;;;;;36.08;21.20;;;4.00;99.90;;;;;;5053008;28;20085;-69
2021/03/17 03:28:20;;;;;;;39.70;22.00;;;4.10;99.90;;;;;;5078063;28;20103;-69
2021/03/17 03:31:07;;;;;;;36.33;22.27;;;4.10;99.90;;;;;;5055715;28;20093;-69
2021/03/17 03:33:51;;;;;;;40.50;22.52;;;4.00;99.90;;;;;;5061128;28;20035;-69
2021/03/17 03:36:35;;;;;;;33.45;21.17;;;4.00;99.90;;;;;;5069639;28;20488;-69
2021/03/17 03:39:19;;;;;;;34.38;20.88;;;4.00;99.90;;;;;;5068349;28;20038;-69
2021/03/17 03:42:04;;;;;;;44.85;24.65;;;4.00;99.90;;;;;;5054823;28;20056;-69
2021/03/17 03:44:48;;;;;;;36.38;22.65;;;3.90;99.90;;;;;;5053059;28;20127;-69
2021/03/17 03:47:33;;;;;;;38.03;23.05;;;3.90;99.90;;;;;;5069442;28;20043;-69
2021/03/17 03:50:20;;;;;;;32.03;20.85;;;4.00;99.90;;;;;;5061889;28;20051;-69
2021/03/17 03:53:17;;;;;;;36.90;22.05;;;3.90;99.90;;;;;;5081989;28;20021;-69
2021/03/17 03:56:44;;;;;;;32.25;20.70;;;3.90;99.90;;;;;;5069874;28;20034;-69
2021/03/17 03:59:35;;;;;;;43.72;23.52;;;3.90;99.90;;;;;;5063199;28;20110;-69
2021/03/17 04:02:25;;;;;;;41.97;24.10;;;3.80;99.90;;;;;;5068936;28;20047;-69
2021/03/17 04:05:12;;;;;;;45.10;24.35;;;3.70;99.90;;;;;;5058537;28;20033;-69
2021/03/17 04:08:04;;;;;;;36.72;22.83;;;3.80;99.90;;;;;;5067093;28;20102;-69
2021/03/17 04:10:55;;;;;;;43.40;24.38;;;3.80;99.90;;;;;;5066775;28;20108;-69
2021/03/17 04:13:40;;;;;;;39.72;24.10;;;3.80;99.90;;;;;;5047391;28;20034;-69
2021/03/17 04:16:26;;;;;;;34.50;21.52;;;3.80;99.90;;;;;;5069315;28;20585;-69
2021/03/17 04:19:11;;;;;;;35.33;21.63;;;3.80;99.90;;;;;;5063077;28;20079;-69
2021/03/17 04:21:57;;;;;;;28.70;20.08;;;3.90;99.90;;;;;;5068957;28;20051;-69
2021/03/17 04:24:43;;;;;;;33.45;19.77;;;3.80;99.90;;;;;;5066049;28;20039;-69
2021/03/17 04:27:29;;;;;;;35.63;20.48;;;3.80;99.90;;;;;;5051208;28;20094;-69
2021/03/17 04:30:15;;;;;;;40.55;22.30;;;3.90;99.90;;;;;;5067925;28;20736;-69
2021/03/17 04:33:02;;;;;;;31.42;19.92;;;3.80;99.90;;;;;;5067241;28;20362;-69
2021/03/17 04:35:47;;;;;;;31.02;19.98;;;3.90;99.90;;;;;;5068094;28;20036;-69
2021/03/17 04:38:32;;;;;;;31.75;20.00;;;3.80;99.90;;;;;;5068217;28;20078;-69
2021/03/17 04:41:18;;;;;;;44.13;22.60;;;3.70;99.90;;;;;;5083816;28;20040;-69
2021/03/17 04:44:02;;;;;;;27.58;17.52;;;3.70;99.90;;;;;;5065721;28;20134;-69
2021/03/17 04:46:47;;;;;;;38.40;21.75;;;3.70;99.90;;;;;;5065858;28;20036;-69
2021/03/17 04:49:33;;;;;;;31.75;17.70;;;3.70;99.90;;;;;;5063781;28;20035;-69
2021/03/17 04:52:19;;;;;;;35.25;21.98;;;3.50;99.90;;;;;;5059040;28;20401;-69
2021/03/17 04:55:04;;;;;;;28.90;17.98;;;3.50;99.90;;;;;;5068558;28;20051;-69
2021/03/17 04:57:50;;;;;;;30.23;17.83;;;3.50;99.90;;;;;;5049415;28;20084;-70
2021/03/17 05:00:35;;;;;;;35.50;19.40;;;3.40;99.90;;;;;;5066879;28;20481;-69
2021/03/17 05:03:23;;;;;;;24.27;15.82;;;3.30;99.90;;;;;;5036037;28;20515;-69
2021/03/17 05:06:09;;;;;;;29.00;17.50;;;3.40;99.90;;;;;;5061362;28;20035;-69
2021/03/17 05:08:59;;;;;;;23.75;14.38;;;3.40;99.90;;;;;;5082962;28;20035;-70
2021/03/17 05:11:45;;;;;;;27.15;16.52;;;3.40;99.90;;;;;;5022332;28;20079;-69
2021/03/17 05:14:33;;;;;;;22.88;15.13;;;3.40;99.90;;;;;;5062300;28;20039;-69
2021/03/17 05:17:20;;;;;;;23.02;15.20;;;3.40;99.90;;;;;;5068717;28;20028;-69
2021/03/17 05:20:11;;;;;;;24.33;15.10;;;3.50;99.90;;;;;;5083357;28;20379;-69
2021/03/17 05:22:57;;;;;;;33.03;18.92;;;3.40;99.90;;;;;;5067145;28;20320;-69
2021/03/17 05:25:42;;;;;;;30.75;17.92;;;3.40;99.90;;;;;;5068405;28;20517;-70
2021/03/17 05:28:28;;;;;;;31.88;18.50;;;3.30;99.90;;;;;;5082117;28;20036;-69
2021/03/17 05:31:19;;;;;;;24.25;16.50;;;3.20;99.90;;;;;;5067479;28;20053;-69
2021/03/17 05:34:03;;;;;;;30.05;17.98;;;3.30;99.90;;;;;;5066663;28;20111;-69
2021/03/17 05:36:48;;;;;;;26.45;16.33;;;3.10;99.90;;;;;;5050696;28;20504;-69
2021/03/17 05:39:43;;;;;;;22.77;14.85;;;3.10;99.90;;;;;;5067621;28;20040;-69
2021/03/17 05:42:28;;;;;;;22.30;13.73;;;3.20;99.90;;;;;;5051095;28;20119;-69
2021/03/17 05:45:27;;;;;;;22.15;13.20;;;3.20;99.90;;;;;;5055859;28;21550;-69
2021/03/17 05:48:14;;;;;;;23.17;13.35;;;3.10;99.90;;;;;;5047799;28;20039;-70
2021/03/17 05:51:03;;;;;;;26.38;15.35;;;3.10;99.90;;;;;;5035529;28;20031;-69
2021/03/17 05:53:48;;;;;;;25.80;14.88;;;3.10;99.90;;;;;;5064206;28;20090;-69
2021/03/17 05:56:32;;;;;;;26.83;15.85;;;3.20;99.90;;;;;;5049210;28;20120;-69
2021/03/17 05:59:24;;;;;;;24.63;15.15;;;3.10;99.90;;;;;;5058503;28;20119;-70
2021/03/17 06:02:09;;;;;;;29.27;17.50;;;3.10;99.90;;;;;;5051224;28;20059;-69
2021/03/17 06:04:54;;;;;;;26.20;15.25;;;3.00;99.90;;;;;;5081591;28;20047;-69
2021/03/17 06:07:43;;;;;;;31.85;17.88;;;3.00;99.90;;;;;;5065460;28;20024;-70
2021/03/17 06:10:28;;;;;;;29.35;16.88;;;3.00;99.90;;;;;;5067981;28;20078;-69
2021/03/17 06:13:15;;;;;;;30.63;17.63;;;3.00;99.90;;;;;;5082579;28;20115;-69
2021/03/17 06:16:03;;;;;;;29.63;17.50;;;3.00;99.90;;;;;;5056207;28;20404;-69
2021/03/17 06:18:56;;;;;;;30.80;16.20;;;3.10;99.90;;;;;;5079265;28;20051;-69
2021/03/17 06:21:41;;;;;;;29.98;17.45;;;3.10;99.90;;;;;;5069431;28;20113;-69
2021/03/17 06:24:29;;;;;;;31.77;17.25;;;3.20;99.90;;;;;;5068935;28;20070;-69
2021/03/17 06:27:24;;;;;;;33.85;18.55;;;3.20;99.90;;;;;;5061489;28;20041;-69
2021/03/17 06:30:11;;;;;;;31.77;17.20;;;3.20;99.90;;;;;;5054046;28;20127;-69
2021/03/17 06:32:55;;;;;;;26.58;16.27;;;3.30;99.90;;;;;;5052702;28;20067;-69
2021/03/17 06:35:39;;;;;;;33.58;18.33;;;3.30;99.90;;;;;;5037411;28;20082;-69
2021/03/17 06:38:24;;;;;;;33.00;17.05;;;3.30;99.90;;;;;;5053849;28;20040;-70
2021/03/17 06:41:09;;;;;;;31.77;17.40;;;3.30;99.90;;;;;;5071374;28;20040;-70
2021/03/17 06:44:02;;;;;;;30.38;17.80;;;3.30;99.90;;;;;;5072368;28;20032;-69
2021/03/17 06:47:17;;;;;;;26.90;16.27;;;3.40;99.90;;;;;;5072098;28;20032;-69
2021/03/17 06:50:14;;;;;;;27.17;14.98;;;3.70;99.90;;;;;;5054017;28;20051;-69
2021/03/17 06:52:58;;;;;;;28.15;15.02;;;3.70;99.90;;;;;;5053910;28;20540;-69
2021/03/17 06:55:42;;;;;;;26.00;14.65;;;3.70;99.90;;;;;;5038496;28;20067;-69
2021/03/17 06:58:38;;;;;;;26.95;16.05;;;3.70;99.90;;;;;;5068666;28;20343;-69
2021/03/17 07:01:32;;;;;;;29.27;16.27;;;3.60;99.90;;;;;;5071887;28;20040;-69
2021/03/17 07:04:25;;;;;;;23.05;14.00;;;3.60;99.90;;;;;;5071202;28;20308;-69
2021/03/17 07:07:09;;;;;;;22.90;14.20;;;3.70;99.90;;;;;;5068994;28;20062;-69
2021/03/17 07:10:00;;;;;;;27.92;16.48;;;3.70;99.90;;;;;;5051246;28;20290;-69
2021/03/17 07:12:44;;;;;;;27.45;16.02;;;3.70;99.90;;;;;;5071404;28;20067;-69
2021/03/17 07:15:29;;;;;;;26.23;16.05;;;3.70;99.90;;;;;;5086145;28;20436;-69
2021/03/17 07:18:24;;;;;;;21.40;12.88;;;3.70;99.90;;;;;;5069298;28;20094;-69
2021/03/17 07:21:09;;;;;;;16.77;11.52;;;3.80;99.90;;;;;;5070494;28;20163;-69
2021/03/17 07:23:54;;;;;;;17.02;11.23;;;3.90;99.90;;;;;;5070717;28;20111;-69
2021/03/17 07:26:40;;;;;;;18.80;11.18;;;4.00;99.90;;;;;;5070411;28;20033;-69
2021/03/17 07:29:24;;;;;;;16.60;10.10;;;4.00;99.90;;;;;;5069815;28;20123;-69
2021/03/17 07:32:09;;;;;;;15.82;10.63;;;4.10;99.90;;;;;;5054517;28;20480;-69
2021/03/17 07:34:54;;;;;;;15.95;10.00;;;4.10;99.90;;;;;;5070756;28;20531;-69
2021/03/17 07:37:39;;;;;;;15.80;10.38;;;4.20;99.90;;;;;;5070159;28;20029;-69
2021/03/17 07:40:23;;;;;;;15.93;10.35;;;4.30;99.90;;;;;;5052214;28;20159;-70
2021/03/17 07:43:09;;;;;;;14.50;10.02;;;4.30;99.90;;;;;;5069673;28;20047;-69
2021/03/17 07:45:55;;;;;;;13.55;9.38;;;4.30;99.90;;;;;;5054684;28;20493;-69
2021/03/17 07:48:40;;;;;;;15.18;9.45;;;4.30;99.90;;;;;;5054846;28;20086;-69
2021/03/17 07:51:25;;;;;;;15.23;9.52;;;4.40;99.90;;;;;;5061770;28;20115;-69
2021/03/17 07:54:17;;;;;;;13.70;9.70;;;4.40;99.90;;;;;;5068263;28;20074;-69
2021/03/17 07:57:04;;;;;;;14.50;9.65;;;4.50;99.90;;;;;;5066265;28;20484;-69
2021/03/17 07:59:49;;;;;;;16.80;10.95;;;4.50;99.90;;;;;;5069840;28;20516;-69
2021/03/17 08:02:36;;;;;;;14.27;9.35;;;4.60;99.90;;;;;;5069882;28;20046;-69
2021/03/17 08:05:21;;;;;;;15.10;10.00;;;4.80;99.90;;;;;;5068875;28;20032;-69
2021/03/17 08:08:06;;;;;;;14.80;10.05;;;4.90;99.90;;;;;;5068783;28;20071;-69
2021/03/17 08:10:52;;;;;;;14.38;9.10;;;5.00;99.90;;;;;;5049708;28;20054;-69
2021/03/17 08:13:37;;;;;;;13.73;9.18;;;5.00;99.90;;;;;;5075891;28;20105;-69
2021/03/17 08:16:30;;;;;;;14.98;9.73;;;5.10;99.90;;;;;;5050687;28;20104;-69
2021/03/17 08:19:30;;;;;;;13.30;9.27;;;5.10;99.90;;;;;;5068295;28;20124;-69
2021/03/17 08:22:14;;;;;;;11.98;8.77;;;5.00;99.90;;;;;;5068863;28;20520;-69
2021/03/17 08:24:59;;;;;;;12.23;8.57;;;5.00;99.90;;;;;;5068694;28;20028;-69
2021/03/17 08:27:43;;;;;;;13.52;8.65;;;5.00;99.90;;;;;;5063776;28;20121;-70
2021/03/17 08:30:32;;;;;;;11.43;7.32;;;5.00;99.90;;;;;;5054185;28;20056;-69
2021/03/17 08:33:35;;;;;;;13.90;9.13;;;5.10;99.90;;;;;;5084231;28;20041;-69
2021/03/17 08:36:20;;;;;;;14.13;9.05;;;5.10;99.90;;;;;;5067666;28;20157;-69
2021/03/17 08:39:04;;;;;;;12.98;9.15;;;5.20;99.90;;;;;;5086733;28;20036;-69
2021/03/17 08:41:58;;;;;;;12.95;8.00;;;5.50;99.90;;;;;;5083630;28;20123;-69
2021/03/17 08:44:45;;;;;;;13.77;8.82;;;5.60;99.90;;;;;;5084439;28;20346;-69
2021/03/17 08:47:46;;;;;;;14.63;8.52;;;5.60;99.90;;;;;;5068806;28;20409;-69
2021/03/17 08:50:31;;;;;;;12.50;8.10;;;5.60;99.90;;;;;;5083968;28;20489;-69
2021/03/17 08:53:39;;;;;;;12.20;7.75;;;5.80;99.90;;;;;;5061301;28;20051;-69
2021/03/17 08:56:47;;;;;;;13.13;8.27;;;6.40;99.90;;;;;;5053867;28;20101;-69
2021/03/17 08:59:48;;;;;;;11.23;7.82;;;6.40;99.90;;;;;;5083638;28;20052;-69
2021/03/17 09:02:32;;;;;;;14.77;9.68;;;6.30;99.90;;;;;;5055658;28;20051;-69
2021/03/17 09:05:21;;;;;;;13.75;9.60;;;6.10;99.90;;;;;;5069602;28;20028;-69
2021/03/17 09:08:09;;;;;;;14.23;9.45;;;6.10;99.90;;;;;;5066581;28;20020;-69
2021/03/17 09:10:53;;;;;;;15.48;9.85;;;6.10;99.90;;;;;;5083442;28;20088;-69
2021/03/17 09:13:51;;;;;;;14.65;10.02;;;6.20;99.90;;;;;;5069716;28;20040;-69
2021/03/17 09:16:56;;;;;;;18.52;10.90;;;6.10;99.90;;;;;;5050315;28;20093;-69
2021/03/17 09:20:00;;;;;;;14.98;9.88;;;5.80;99.90;;;;;;5079939;28;20531;-69
2021/03/17 09:22:47;;;;;;;;;;;5.70;99.90;;;;;;5034097;28;20109;-69
2021/03/17 09:26:01;;;;;;;14.27;9.50;;;5.90;99.90;;;;;;5051079;28;20002;-69
2021/03/17 09:28:45;;;;;;;16.08;11.07;;;5.80;99.90;;;;;;5048648;28;20042;-69
2021/03/17 09:31:32;;;;;;;14.60;10.38;;;5.80;99.90;;;;;;5050867;28;20165;-69
2021/03/17 09:34:24;;;;;;;16.58;10.77;;;6.00;99.90;;;;;;5065776;28;20048;-69
2021/03/17 09:37:10;;;;;;;15.48;11.00;;;6.10;99.90;;;;;;5065837;28;20047;-69
2021/03/17 09:39:54;;;;;;;15.07;10.88;;;6.10;99.90;;;;;;5050897;28;20044;-69
2021/03/17 09:42:39;;;;;;;14.40;10.27;;;6.00;99.90;;;;;;5069168;28;20055;-69
2021/03/17 09:45:25;;;;;;;18.38;11.85;;;6.00;99.90;;;;;;5084992;28;20611;-69
2021/03/17 09:48:19;;;;;;;15.98;10.57;;;6.30;99.90;;;;;;5069718;28;20120;-69
2021/03/17 09:51:03;;;;;;;17.98;9.98;;;6.30;99.90;;;;;;5051716;28;20102;-69
2021/03/17 09:53:51;;;;;;;17.83;10.07;;;6.50;99.90;;;;;;5072321;28;20346;-69
2021/03/17 09:56:39;;;;;;;13.30;9.07;;;7.40;99.90;;;;;;5069002;28;20093;-69
2021/03/17 09:59:45;;;;;;;8.15;5.70;;;8.50;99.90;;;;;;5073219;28;20040;-69
2021/03/17 10:02:30;;;;;;;10.05;6.20;;;8.50;99.90;;;;;;5071455;28;20040;-69
2021/03/17 10:05:14;;;;;;;7.40;5.38;;;9.10;99.90;;;;;;5072022;28;20078;-69
2021/03/17 10:07:58;;;;;;;12.18;7.97;;;8.30;99.90;;;;;;5084280;28;20684;-69
2021/03/17 10:10:42;;;;;;;10.25;6.68;;;7.60;99.90;;;;;;5071979;28;20039;-69
2021/03/17 10:13:32;;;;;;;7.45;5.20;;;7.30;99.90;;;;;;5072570;28;20037;-70
2021/03/17 10:16:17;;;;;;;6.90;4.18;;;6.60;99.90;;;;;;5070177;28;20078;-69
2021/03/17 10:19:01;;;;;;;4.70;2.97;;;6.10;99.90;;;;;;5070578;28;20028;-70
2021/03/17 10:21:47;;;;;;;5.72;3.47;;;5.70;99.90;;;;;;5069035;28;20037;-69
2021/03/17 10:24:43;;;;;;;4.45;2.67;;;5.60;99.90;;;;;;5069795;28;20035;-69
2021/03/17 10:27:31;;;;;;;8.20;3.67;;;5.40;99.90;;;;;;5070264;28;20113;-69
2021/03/17 10:30:19;;;;;;;5.07;3.30;;;5.40;99.90;;;;;;5054483;28;20105;-69
2021/03/17 10:33:12;;;;;;;5.13;2.60;;;5.50;99.90;;;;;;5071862;28;20090;-69
2021/03/17 10:35:56;;;;;;;5.82;3.15;;;5.90;99.90;;;;;;5052325;28;20032;-69
2021/03/17 10:38:52;;;;;;;6.93;4.88;;;6.40;99.90;;;;;;5080852;28;20124;-69
2021/03/17 10:41:43;;;;;;;4.50;2.90;;;6.90;99.90;;;;;;5064701;28;20031;-69
2021/03/17 10:44:29;;;;;;;2.70;0.77;;;7.60;99.90;;;;;;5063513;28;20044;-69
2021/03/17 10:47:15;;;;;;;2.13;0.80;;;8.00;99.90;;;;;;5071646;28;20273;-69
2021/03/17 10:50:37;;;;;;;0.95;0.60;;;8.10;99.90;;;;;;5063205;28;20120;-68
2021/03/17 10:53:44;;;;;;;1.30;0.65;;;7.80;99.90;;;;;;5083780;28;20036;-69
2021/03/17 10:56:31;;;;;;;0.70;0.40;;;7.80;99.90;;;;;;5036297;28;20033;-69
2021/03/17 10:59:26;;;;;;;1.67;0.80;;;7.10;99.90;;;;;;5070630;28;20142;-69
2021/03/17 11:02:24;;;;;;;1.35;0.70;;;6.50;99.90;;;;;;5055927;28;20032;-69
2021/03/17 11:05:12;;;;;;;1.55;0.80;;;6.00;99.90;;;;;;5069121;28;20111;-69
2021/03/17 11:08:06;;;;;;;1.38;0.68;;;5.40;99.90;;;;;;5070733;28;20105;-70
2021/03/17 11:10:57;;;;;;;3.53;0.80;;;4.80;99.90;;;;;;5070941;28;20030;-69
2021/03/17 11:13:44;;;;;;;3.50;0.85;;;4.70;99.90;;;;;;5070554;28;20033;-69
2021/03/17 11:16:32;;;;;;;2.78;1.02;;;4.60;99.90;;;;;;5068613;28;20036;-70
2021/03/17 11:19:25;;;;;;;2.95;1.15;;;4.60;99.90;;;;;;5068438;28;20249;-69
2021/03/17 11:22:09;;;;;;;4.72;1.08;;;4.70;99.90;;;;;;5071097;28;20051;-70
2021/03/17 11:25:14;;;;;;;2.63;1.13;;;4.90;99.90;;;;;;5069842;28;20500;-69
2021/03/17 11:28:22;;;;;;;3.13;0.80;;;5.10;99.90;;;;;;5070734;28;20029;-69
2021/03/17 11:31:26;;;;;;;2.30;0.90;;;5.50;99.90;;;;;;5070008;28;20398;-68
2021/03/17 11:34:11;;;;;;;2.88;1.17;;;6.10;99.90;;;;;;5068451;28;20382;-69
2021/03/17 11:36:55;;;;;;;2.17;0.90;;;6.40;99.90;;;;;;5057439;28;20523;-69
2021/03/17 11:39:39;;;;;;;1.83;0.90;;;6.70;99.90;;;;;;5070012;28;20037;-69
2021/03/17 11:42:24;;;;;;;1.92;0.80;;;6.70;99.90;;;;;;5083893;28;20123;-69
2021/03/17 11:45:08;;;;;;;1.55;0.90;;;6.50;99.90;;;;;;5072278;28;20405;-68
2021/03/17 11:47:52;;;;;;;1.70;0.80;;;6.40;99.90;;;;;;5085727;28;20041;-69
2021/03/17 11:50:40;;;;;;;1.65;0.75;;;6.50;99.90;;;;;;5085231;28;20121;-69
2021/03/17 11:53:24;;;;;;;1.13;0.65;;;6.60;99.90;;;;;;5069830;28;20059;-70
2021/03/17 11:56:10;;;;;;;1.77;0.90;;;6.60;99.90;;;;;;5085518;28;20053;-69
2021/03/17 11:58:59;;;;;;;1.38;0.70;;;7.00;99.90;;;;;;5070594;28;20093;-70
2021/03/17 12:01:43;;;;;;;1.80;0.80;;;7.30;99.90;;;;;;5069533;28;20099;-69
2021/03/17 12:04:27;;;;;;;1.65;0.90;;;7.70;99.90;;;;;;5071820;28;20029;-69
2021/03/17 12:07:11;;;;;;;1.13;0.68;;;8.20;99.90;;;;;;5059789;28;20029;-69
2021/03/17 12:09:56;;;;;;;1.50;0.70;;;8.60;99.90;;;;;;5068868;28;20032;-69
2021/03/17 12:12:40;;;;;;;1.27;0.70;;;8.50;99.90;;;;;;5051365;28;20535;-69
2021/03/17 12:15:27;;;;;;;1.65;0.63;;;7.90;99.90;;;;;;5051616;28;20045;-69
2021/03/17 12:18:12;;;;;;;1.55;0.65;;;6.80;99.90;;;;;;5065115;28;20633;-69
2021/03/17 12:20:55;;;;;;;0.95;0.50;;;6.10;99.90;;;;;;5057715;28;20036;-69
2021/03/17 12:23:40;;;;;;;0.98;0.60;;;5.90;99.90;;;;;;5067615;28;20035;-69
2021/03/17 12:26:26;;;;;;;1.50;0.65;;;6.10;99.90;;;;;;5047333;28;20029;-69
2021/03/17 12:29:10;;;;;;;1.20;0.70;;;6.40;99.90;;;;;;5069833;28;20025;-69
2021/03/17 12:31:56;;;;;;;1.75;0.90;;;6.40;99.90;;;;;;5068199;28;20093;-69
2021/03/17 12:34:41;;;;;;;2.22;0.80;;;6.30;99.90;;;;;;5048847;28;20382;-69
2021/03/17 12:37:26;;;;;;;1.20;0.65;;;6.60;99.90;;;;;;5061024;28;20051;-68
2021/03/17 12:40:13;;;;;;;1.23;0.65;;;7.00;99.90;;;;;;5067414;28;20039;-68
2021/03/17 12:42:59;;;;;;;1.27;0.70;;;7.60;99.90;;;;;;5065652;28;20031;-68
2021/03/17 12:45:46;;;;;;;1.10;0.73;;;8.10;99.90;;;;;;5065427;28;20401;-68
2021/03/17 12:48:32;;;;;;;1.42;0.73;;;8.40;99.90;;;;;;5057130;28;20040;-69
2021/03/17 12:51:20;;;;;;;1.98;0.70;;;8.20;99.90;;;;;;5093299;28;20070;-69
2021/03/17 12:54:05;;;;;;;3.78;0.93;;;7.50;99.90;;;;;;5068431;28;20704;-68
2021/03/17 12:56:49;;;;;;;1.60;0.80;;;8.30;99.90;;;;;;5068049;28;20070;-69
2021/03/17 12:59:33;;;;;;;1.63;0.85;;;8.80;99.90;;;;;;5060588;28;20043;-69
2021/03/17 13:02:18;;;;;;;1.85;1.00;;;8.90;99.90;;;;;;5054243;28;20037;-69
2021/03/17 13:05:03;;;;;;;1.88;0.90;;;8.80;99.90;;;;;;5074084;28;20119;-69
2021/03/17 13:07:47;;;;;;;1.40;0.80;;;7.60;99.90;;;;;;5068202;28;20619;-69
2021/03/17 13:10:33;;;;;;;2.17;0.95;;;6.50;99.90;;;;;;5068436;28;20041;-69
2021/03/17 13:13:17;;;;;;;1.45;0.93;;;6.20;99.90;;;;;;5059045;28;20028;-69
2021/03/17 13:16:01;;;;;;;2.53;1.10;;;6.00;99.90;;;;;;5068895;28;20108;-69
2021/03/17 13:18:47;;;;;;;0.98;0.80;;;6.50;99.90;;;;;;5051379;28;20028;-69
2021/03/17 13:21:51;;;;;;;2.65;1.20;;;7.20;99.90;;;;;;5049586;28;20044;-70
2021/03/17 13:24:35;;;;;;;2.92;1.02;;;7.20;99.90;;;;;;5083442;28;20032;-69
2021/03/17 13:27:40;;;;;;;1.77;1.15;;;7.60;99.90;;;;;;5071485;28;20378;-69
2021/03/17 13:30:25;;;;;;;1.80;0.90;;;9.40;99.90;;;;;;5071890;28;20040;-69
2021/03/17 13:33:09;;;;;;;4.50;0.90;;;11.10;99.90;;;;;;5071384;28;20170;-69
2021/03/17 13:35:54;;;;;;;2.10;1.20;;;12.40;99.90;;;;;;5073503;28;20147;-69
2021/03/17 13:38:38;;;;;;;1.42;0.90;;;14.20;99.90;;;;;;5072254;28;20090;-69
2021/03/17 13:41:23;;;;;;;4.60;0.95;;;16.00;97.90;;;;;;5054782;28;20043;-69
2021/03/17 13:44:08;;;;;;;2.30;0.85;;;14.70;96.40;;;;;;5073243;28;20500;-69
2021/03/17 13:46:52;;;;;;;1.33;0.90;;;12.30;99.90;;;;;;5071889;28;20031;-69
2021/03/17 13:49:36;;;;;;;1.60;0.95;;;10.40;99.90;;;;;;5051549;28;20113;-68
2021/03/17 13:52:21;;;;;;;2.20;1.08;;;10.30;99.90;;;;;;5072168;28;20119;-69
2021/03/17 13:55:07;;;;;;;2.42;1.00;;;9.20;99.90;;;;;;5052550;28;20081;-69
2021/03/17 13:57:53;;;;;;;2.72;1.17;;;9.00;99.90;;;;;;5071483;28;20036;-69
2021/03/17 14:00:37;;;;;;;3.35;1.20;;;8.80;99.90;;;;;;5071715;28;20416;-69
2021/03/17 14:03:22;;;;;;;3.13;1.13;;;9.20;99.90;;;;;;5072002;28;20048;-69
2021/03/17 14:06:07;;;;;;;2.58;0.95;;;9.30;99.90;;;;;;5053522;28;20036;-69
2021/03/17 14:08:51;;;;;;;1.98;1.20;;;8.60;99.90;;;;;;5072022;28;20020;-69
2021/03/17 14:11:35;;;;;;;3.72;1.10;;;8.40;99.90;;;;;;5048427;28;20428;-69
2021/03/17 14:14:19;;;;;;;3.67;1.00;;;8.10;99.90;;;;;;5069754;28;20047;-69
2021/03/17 14:17:04;;;;;;;1.63;1.00;;;7.90;99.90;;;;;;5067993;28;20040;-69
2021/03/17 14:19:48;;;;;;;1.95;0.80;;;8.50;99.90;;;;;;5071722;28;20044;-68
2021/03/17 14:22:33;;;;;;;4.40;1.00;;;8.90;99.90;;;;;;5052403;28;20520;-69
2021/03/17 14:25:17;;;;;;;2.08;0.90;;;9.10;99.90;;;;;;5080320;28;20116;-69
2021/03/17 14:28:02;;;;;;;1.40;0.80;;;9.40;99.90;;;;;;5083836;28;20562;-69
2021/03/17 14:30:46;;;;;;;1.27;0.90;;;10.00;99.90;;;;;;5070743;28;20068;-69
2021/03/17 14:33:30;;;;;;;1.67;0.90;;;12.80;99.90;;;;;;5071339;28;20052;-69